sensor_id;sensor_type;location;lat;lon;timestamp;pressure;altitude;pressure_sealevel;temperature;humidity
6389;BME280;3227;42.654;23.360;2022-12-11T00:01:33;92390.66;;;12.26;100.00
6389;BME280;3227;42.654;23.360;2022-12-11T00:03:59;92377.00;;;12.25;100.00
6389;BME280;3227;42.654;23.360;2022-12-11T00:06:26;92398.91;;;12.34;100.00
6389;BME280;3227;42.654;23.360;2022-12-11T00:08:53;92400.78;;;12.29;100.00
6389;BME280;3227;42.654;23.360;2022-12-11T00:11:22;92413.25;;;12.38;100.00
6389;BME280;3227;42.654;23.360;2022-12-11T00:13:49;92366.53;;;12.30;100.00
6389;BME280;3227;42.654;23.360;2022-12-11T00:16:16;92380.25;;;12.08;100.00
6389;BME280;3227;42.654;23.360;2022-12-11T00:18:42;92388.78;;;12.09;100.00
6389;BME280;3227;42.654;23.360;2022-12-11T00:21:11;92368.00;;;12.15;100.00
6389;BME280;3227;42.654;23.360;2022-12-11T00:23:39;92374.38;;;12.27;100.00
6389;BME280;3227;42.654;23.360;2022-12-11T00:26:07;92389.69;;;12.28;100.00
6389;BME280;3227;42.654;23.360;2022-12-11T00:28:36;92369.41;;;12.22;100.00
6389;BME280;3227;42.654;23.360;2022-12-11T00:31:03;92360.59;;;12.28;100.00
6389;BME280;3227;42.654;23.360;2022-12-11T00:33:31;92378.56;;;12.28;100.00
6389;BME280;3227;42.654;23.360;2022-12-11T00:35:57;92352.06;;;12.27;100.00
6389;BME280;3227;42.654;23.360;2022-12-11T00:38:24;92388.56;;;12.35;100.00
6389;BME280;3227;42.654;23.360;2022-12-11T00:40:51;92362.81;;;12.16;100.00
6389;BME280;3227;42.654;23.360;2022-12-11T00:43:18;92402.19;;;12.15;100.00
6389;BME280;3227;42.654;23.360;2022-12-11T00:45:46;92332.09;;;11.93;100.00
6389;BME280;3227;42.654;23.360;2022-12-11T00:48:13;92389.13;;;11.78;100.00
6389;BME280;3227;42.654;23.360;2022-12-11T00:50:40;92344.84;;;11.73;100.00
6389;BME280;3227;42.654;23.360;2022-12-11T00:53:07;92371.38;;;11.72;100.00
6389;BME280;3227;42.654;23.360;2022-12-11T00:55:36;92371.31;;;11.75;100.00
6389;BME280;3227;42.654;23.360;2022-12-11T00:58:03;92363.41;;;11.58;100.00
6389;BME280;3227;42.654;23.360;2022-12-11T01:00:30;92366.03;;;11.78;100.00
6389;BME280;3227;42.654;23.360;2022-12-11T01:02:58;92365.97;;;11.79;100.00
6389;BME280;3227;42.654;23.360;2022-12-11T01:05:25;92363.00;;;11.90;100.00
6389;BME280;3227;42.654;23.360;2022-12-11T01:07:52;92378.72;;;12.03;100.00
6389;BME280;3227;42.654;23.360;2022-12-11T01:10:19;92332.84;;;11.73;100.00
6389;BME280;3227;42.654;23.360;2022-12-11T01:12:52;92379.56;;;12.03;100.00
6389;BME280;3227;42.654;23.360;2022-12-11T01:15:21;92368.03;;;11.93;100.00
6389;BME280;3227;42.654;23.360;2022-12-11T01:17:48;92327.19;;;11.65;100.00
6389;BME280;3227;42.654;23.360;2022-12-11T01:20:24;92329.66;;;11.68;100.00
6389;BME280;3227;42.654;23.360;2022-12-11T01:22:57;92400.66;;;11.90;100.00
6389;BME280;3227;42.654;23.360;2022-12-11T01:25:26;92383.22;;;11.98;100.00
6389;BME280;3227;42.654;23.360;2022-12-11T01:27:54;92411.03;;;12.08;100.00
6389;BME280;3227;42.654;23.360;2022-12-11T01:30:23;92398.69;;;12.18;100.00
6389;BME280;3227;42.654;23.360;2022-12-11T01:32:50;92393.03;;;12.30;100.00
6389;BME280;3227;42.654;23.360;2022-12-11T01:35:17;92397.03;;;12.37;100.00
6389;BME280;3227;42.654;23.360;2022-12-11T01:37:46;92379.63;;;12.44;100.00
6389;BME280;3227;42.654;23.360;2022-12-11T01:40:14;92366.50;;;12.51;100.00
6389;BME280;3227;42.654;23.360;2022-12-11T01:42:41;92315.81;;;12.14;100.00
6389;BME280;3227;42.654;23.360;2022-12-11T01:45:27;92327.63;;;12.39;100.00
6389;BME280;3227;42.654;23.360;2022-12-11T01:48:12;92345.34;;;12.25;100.00
6389;BME280;3227;42.654;23.360;2022-12-11T01:50:44;92359.97;;;12.02;100.00
6389;BME280;3227;42.654;23.360;2022-12-11T01:53:17;92328.91;;;11.87;100.00
6389;BME280;3227;42.654;23.360;2022-12-11T01:55:46;92317.19;;;11.81;100.00
6389;BME280;3227;42.654;23.360;2022-12-11T01:58:15;92360.22;;;11.73;100.00
6389;BME280;3227;42.654;23.360;2022-12-11T02:00:42;92395.81;;;11.82;100.00
6389;BME280;3227;42.654;23.360;2022-12-11T02:03:09;92412.66;;;11.89;100.00
6389;BME280;3227;42.654;23.360;2022-12-11T02:05:36;92347.13;;;11.80;100.00
6389;BME280;3227;42.654;23.360;2022-12-11T02:08:03;92380.41;;;12.04;100.00
6389;BME280;3227;42.654;23.360;2022-12-11T02:10:44;92360.84;;;12.01;100.00
6389;BME280;3227;42.654;23.360;2022-12-11T02:13:17;92339.50;;;11.79;100.00
6389;BME280;3227;42.654;23.360;2022-12-11T02:15:49;92347.25;;;11.99;100.00
6389;BME280;3227;42.654;23.360;2022-12-11T02:18:24;92354.06;;;12.00;100.00
6389;BME280;3227;42.654;23.360;2022-12-11T02:20:57;92338.66;;;12.20;100.00
6389;BME280;3227;42.654;23.360;2022-12-11T02:23:53;92305.94;;;12.26;100.00
6389;BME280;3227;42.654;23.360;2022-12-11T02:26:33;92338.03;;;12.15;100.00
6389;BME280;3227;42.654;23.360;2022-12-11T02:29:07;92282.00;;;12.05;100.00
6389;BME280;3227;42.654;23.360;2022-12-11T02:31:41;92289.50;;;12.30;100.00
6389;BME280;3227;42.654;23.360;2022-12-11T02:34:12;92279.66;;;12.39;100.00
6389;BME280;3227;42.654;23.360;2022-12-11T02:36:47;92284.19;;;12.53;100.00
6389;BME280;3227;42.654;23.360;2022-12-11T02:39:15;92303.47;;;12.63;100.00
6389;BME280;3227;42.654;23.360;2022-12-11T02:41:48;92310.78;;;12.72;100.00
6389;BME280;3227;42.654;23.360;2022-12-11T02:44:20;92306.75;;;12.85;100.00
6389;BME280;3227;42.654;23.360;2022-12-11T02:46:49;92301.22;;;12.94;100.00
6389;BME280;3227;42.654;23.360;2022-12-11T02:49:18;92309.41;;;13.03;100.00
6389;BME280;3227;42.654;23.360;2022-12-11T02:51:46;92304.84;;;13.09;100.00
6389;BME280;3227;42.654;23.360;2022-12-11T02:54:15;92280.81;;;12.91;100.00
6389;BME280;3227;42.654;23.360;2022-12-11T02:56:47;92304.66;;;13.14;100.00
6389;BME280;3227;42.654;23.360;2022-12-11T02:59:21;92307.84;;;13.19;100.00
6389;BME280;3227;42.654;23.360;2022-12-11T03:01:49;92304.09;;;13.26;100.00
6389;BME280;3227;42.654;23.360;2022-12-11T03:04:16;92302.66;;;13.20;100.00
6389;BME280;3227;42.654;23.360;2022-12-11T03:06:55;92328.28;;;13.22;100.00
6389;BME280;3227;42.654;23.360;2022-12-11T03:09:26;92318.06;;;13.20;100.00
6389;BME280;3227;42.654;23.360;2022-12-11T03:11:53;92274.66;;;12.94;100.00
6389;BME280;3227;42.654;23.360;2022-12-11T03:14:21;92309.41;;;13.23;100.00
6389;BME280;3227;42.654;23.360;2022-12-11T03:16:53;92300.63;;;13.27;100.00
6389;BME280;3227;42.654;23.360;2022-12-11T03:19:29;92300.63;;;13.27;100.00
6389;BME280;3227;42.654;23.360;2022-12-11T03:22:02;92277.47;;;13.27;100.00
6389;BME280;3227;42.654;23.360;2022-12-11T03:24:37;92279.44;;;13.41;100.00
6389;BME280;3227;42.654;23.360;2022-12-11T03:27:10;92284.34;;;13.45;98.73
6389;BME280;3227;42.654;23.360;2022-12-11T03:29:48;92306.31;;;13.52;97.46
6389;BME280;3227;42.654;23.360;2022-12-11T03:32:23;92300.06;;;13.58;98.13
6389;BME280;3227;42.654;23.360;2022-12-11T03:34:56;92309.66;;;13.54;97.00
6389;BME280;3227;42.654;23.360;2022-12-11T03:37:30;92319.81;;;13.57;98.90
6389;BME280;3227;42.654;23.360;2022-12-11T03:40:03;92298.94;;;13.45;100.00
6389;BME280;3227;42.654;23.360;2022-12-11T03:42:32;92321.31;;;13.61;100.00
6389;BME280;3227;42.654;23.360;2022-12-11T03:45:02;92331.31;;;13.67;96.93
6389;BME280;3227;42.654;23.360;2022-12-11T03:47:31;92313.03;;;13.74;94.58
6389;BME280;3227;42.654;23.360;2022-12-11T03:50:00;92343.00;;;13.92;96.74
6389;BME280;3227;42.654;23.360;2022-12-11T03:52:28;92338.56;;;13.95;92.07
6389;BME280;3227;42.654;23.360;2022-12-11T03:54:59;92334.41;;;14.10;90.19
6389;BME280;3227;42.654;23.360;2022-12-11T03:57:29;92312.38;;;13.87;91.36
6389;BME280;3227;42.654;23.360;2022-12-11T03:59:56;92368.34;;;14.18;92.34
6389;BME280;3227;42.654;23.360;2022-12-11T04:02:25;92369.47;;;13.95;96.81
6389;BME280;3227;42.654;23.360;2022-12-11T04:04:51;92351.09;;;13.67;97.65
6389;BME280;3227;42.654;23.360;2022-12-11T04:07:18;92329.03;;;13.43;95.83
6389;BME280;3227;42.654;23.360;2022-12-11T04:09:45;92369.66;;;13.74;94.01
6389;BME280;3227;42.654;23.360;2022-12-11T04:12:12;92368.75;;;13.75;92.98
6389;BME280;3227;42.654;23.360;2022-12-11T04:14:38;92377.78;;;13.83;93.17
6389;BME280;3227;42.654;23.360;2022-12-11T04:17:23;92375.09;;;13.85;92.70
6389;BME280;3227;42.654;23.360;2022-12-11T04:20:10;92352.56;;;13.90;89.71
6389;BME280;3227;42.654;23.360;2022-12-11T04:22:54;92358.97;;;14.00;90.69
6389;BME280;3227;42.654;23.360;2022-12-11T04:25:38;92354.63;;;14.00;91.05
6389;BME280;3227;42.654;23.360;2022-12-11T04:28:05;92361.53;;;14.00;91.74
6389;BME280;3227;42.654;23.360;2022-12-11T04:30:32;92375.91;;;14.04;91.72
6389;BME280;3227;42.654;23.360;2022-12-11T04:32:58;92385.09;;;14.09;92.38
6389;BME280;3227;42.654;23.360;2022-12-11T04:35:27;92390.22;;;14.09;93.18
6389;BME280;3227;42.654;23.360;2022-12-11T04:37:54;92396.28;;;14.08;93.42
6389;BME280;3227;42.654;23.360;2022-12-11T04:40:21;92396.16;;;14.12;92.61
6389;BME280;3227;42.654;23.360;2022-12-11T04:42:48;92394.09;;;14.18;92.41
6389;BME280;3227;42.654;23.360;2022-12-11T04:45:15;92376.09;;;14.18;92.15
6389;BME280;3227;42.654;23.360;2022-12-11T04:47:42;92390.34;;;14.25;88.46
6389;BME280;3227;42.654;23.360;2022-12-11T04:50:10;92388.88;;;14.38;80.85
6389;BME280;3227;42.654;23.360;2022-12-11T04:52:40;92384.03;;;14.50;78.15
6389;BME280;3227;42.654;23.360;2022-12-11T04:55:08;92399.03;;;14.59;78.28
6389;BME280;3227;42.654;23.360;2022-12-11T04:57:35;92412.59;;;14.62;75.48
6389;BME280;3227;42.654;23.360;2022-12-11T05:00:03;92420.28;;;14.64;75.01
6389;BME280;3227;42.654;23.360;2022-12-11T05:02:33;92444.97;;;14.85;80.41
6389;BME280;3227;42.654;23.360;2022-12-11T05:05:00;92466.44;;;14.85;79.64
6389;BME280;3227;42.654;23.360;2022-12-11T05:07:27;92415.31;;;14.59;75.65
6389;BME280;3227;42.654;23.360;2022-12-11T05:09:55;92435.88;;;14.95;70.86
6389;BME280;3227;42.654;23.360;2022-12-11T05:12:22;92439.13;;;15.16;69.28
6389;BME280;3227;42.654;23.360;2022-12-11T05:14:50;92443.72;;;15.27;69.85
6389;BME280;3227;42.654;23.360;2022-12-11T05:17:17;92441.00;;;15.30;70.18
6389;BME280;3227;42.654;23.360;2022-12-11T05:19:46;92440.63;;;15.37;70.31
6389;BME280;3227;42.654;23.360;2022-12-11T05:22:13;92453.34;;;15.40;70.83
6389;BME280;3227;42.654;23.360;2022-12-11T05:24:40;92474.09;;;15.39;70.29
6389;BME280;3227;42.654;23.360;2022-12-11T05:27:09;92471.66;;;15.36;67.64
6389;BME280;3227;42.654;23.360;2022-12-11T05:29:36;92480.75;;;15.43;67.36
6389;BME280;3227;42.654;23.360;2022-12-11T05:32:03;92469.44;;;15.45;67.78
6389;BME280;3227;42.654;23.360;2022-12-11T05:34:30;92462.16;;;15.53;65.82
6389;BME280;3227;42.654;23.360;2022-12-11T05:36:57;92424.47;;;15.49;66.45
6389;BME280;3227;42.654;23.360;2022-12-11T05:39:24;92443.69;;;15.61;66.58
6389;BME280;3227;42.654;23.360;2022-12-11T05:41:51;92434.44;;;15.57;67.22
6389;BME280;3227;42.654;23.360;2022-12-11T05:44:19;92419.50;;;15.46;67.14
6389;BME280;3227;42.654;23.360;2022-12-11T05:46:46;92434.59;;;15.54;67.26
6389;BME280;3227;42.654;23.360;2022-12-11T05:49:13;92408.09;;;15.50;67.54
6389;BME280;3227;42.654;23.360;2022-12-11T05:51:40;92418.81;;;15.43;68.34
6389;BME280;3227;42.654;23.360;2022-12-11T05:54:08;92428.28;;;15.42;67.17
6389;BME280;3227;42.654;23.360;2022-12-11T05:56:36;92429.13;;;15.43;66.71
6389;BME280;3227;42.654;23.360;2022-12-11T05:59:04;92401.84;;;15.39;66.14
6389;BME280;3227;42.654;23.360;2022-12-11T06:01:34;92400.97;;;15.55;66.64
6389;BME280;3227;42.654;23.360;2022-12-11T06:04:03;92378.84;;;15.34;68.09
6389;BME280;3227;42.654;23.360;2022-12-11T06:06:31;92367.88;;;15.31;68.31
6389;BME280;3227;42.654;23.360;2022-12-11T06:08:59;92415.31;;;15.61;69.64
6389;BME280;3227;42.654;23.360;2022-12-11T06:11:27;92438.53;;;15.61;67.84
6389;BME280;3227;42.654;23.360;2022-12-11T06:13:54;92402.06;;;15.67;65.08
6389;BME280;3227;42.654;23.360;2022-12-11T06:16:22;92413.91;;;15.71;65.04
6389;BME280;3227;42.654;23.360;2022-12-11T06:18:50;92388.34;;;15.49;66.47
6389;BME280;3227;42.654;23.360;2022-12-11T06:21:18;92413.56;;;15.77;65.61
6389;BME280;3227;42.654;23.360;2022-12-11T06:23:47;92443.88;;;15.74;65.19
6389;BME280;3227;42.654;23.360;2022-12-11T06:26:14;92433.22;;;15.64;63.84
6389;BME280;3227;42.654;23.360;2022-12-11T06:28:41;92440.06;;;15.81;63.72
6389;BME280;3227;42.654;23.360;2022-12-11T06:31:08;92413.47;;;15.63;61.75
6389;BME280;3227;42.654;23.360;2022-12-11T06:33:35;92474.72;;;15.92;60.67
6389;BME280;3227;42.654;23.360;2022-12-11T06:36:06;92477.91;;;15.97;61.10
6389;BME280;3227;42.654;23.360;2022-12-11T06:38:33;92451.00;;;16.02;62.49
6389;BME280;3227;42.654;23.360;2022-12-11T06:41:01;92434.59;;;16.03;62.16
6389;BME280;3227;42.654;23.360;2022-12-11T06:43:30;92432.91;;;16.02;61.06
6389;BME280;3227;42.654;23.360;2022-12-11T06:45:57;92448.06;;;16.08;61.78
6389;BME280;3227;42.654;23.360;2022-12-11T06:48:29;92445.91;;;16.16;61.82
6389;BME280;3227;42.654;23.360;2022-12-11T06:50:56;92435.16;;;16.08;59.90
6389;BME280;3227;42.654;23.360;2022-12-11T06:53:24;92444.06;;;16.18;59.86
6389;BME280;3227;42.654;23.360;2022-12-11T06:55:51;92451.31;;;16.27;59.97
6389;BME280;3227;42.654;23.360;2022-12-11T06:58:18;92469.91;;;16.33;60.28
6389;BME280;3227;42.654;23.360;2022-12-11T07:00:45;92477.44;;;16.38;61.99
6389;BME280;3227;42.654;23.360;2022-12-11T07:03:11;92459.34;;;16.38;62.37
6389;BME280;3227;42.654;23.360;2022-12-11T07:05:38;92477.25;;;16.41;61.95
6389;BME280;3227;42.654;23.360;2022-12-11T07:08:05;92475.75;;;16.37;61.42
6389;BME280;3227;42.654;23.360;2022-12-11T07:10:34;92461.56;;;16.44;62.08
6389;BME280;3227;42.654;23.360;2022-12-11T07:13:00;92472.75;;;16.45;62.88
6389;BME280;3227;42.654;23.360;2022-12-11T07:15:27;92462.50;;;16.43;62.79
6389;BME280;3227;42.654;23.360;2022-12-11T07:17:54;92472.31;;;16.52;62.91
6389;BME280;3227;42.654;23.360;2022-12-11T07:20:21;92471.56;;;16.50;63.87
6389;BME280;3227;42.654;23.360;2022-12-11T07:22:48;92389.91;;;16.01;64.26
6389;BME280;3227;42.654;23.360;2022-12-11T07:25:15;92495.94;;;16.46;65.00
6389;BME280;3227;42.654;23.360;2022-12-11T07:28:03;92487.56;;;16.41;64.37
6389;BME280;3227;42.654;23.360;2022-12-11T07:30:30;92483.44;;;16.39;63.63
6389;BME280;3227;42.654;23.360;2022-12-11T07:32:57;92487.75;;;16.38;64.03
6389;BME280;3227;42.654;23.360;2022-12-11T07:35:23;92493.09;;;16.35;64.56
6389;BME280;3227;42.654;23.360;2022-12-11T07:37:50;92511.94;;;16.37;64.20
6389;BME280;3227;42.654;23.360;2022-12-11T07:40:17;92512.59;;;16.41;65.60
6389;BME280;3227;42.654;23.360;2022-12-11T07:42:44;92523.53;;;16.46;65.93
6389;BME280;3227;42.654;23.360;2022-12-11T07:45:12;92523.94;;;16.54;66.01
6389;BME280;3227;42.654;23.360;2022-12-11T07:47:39;92509.44;;;16.51;66.08
6389;BME280;3227;42.654;23.360;2022-12-11T07:50:06;92518.84;;;16.52;65.11
6389;BME280;3227;42.654;23.360;2022-12-11T07:52:33;92531.63;;;16.55;64.78
6389;BME280;3227;42.654;23.360;2022-12-11T07:55:00;92533.25;;;16.41;63.19
6389;BME280;3227;42.654;23.360;2022-12-11T07:57:27;92539.75;;;16.48;62.75
6389;BME280;3227;42.654;23.360;2022-12-11T07:59:54;92523.25;;;16.50;61.87
6389;BME280;3227;42.654;23.360;2022-12-11T08:02:22;92521.28;;;16.55;62.00
6389;BME280;3227;42.654;23.360;2022-12-11T08:04:49;92552.00;;;16.61;62.65
6389;BME280;3227;42.654;23.360;2022-12-11T08:07:15;92541.66;;;16.61;62.42
6389;BME280;3227;42.654;23.360;2022-12-11T08:09:42;92514.25;;;16.57;62.47
6389;BME280;3227;42.654;23.360;2022-12-11T08:12:09;92545.56;;;16.68;62.64
6389;BME280;3227;42.654;23.360;2022-12-11T08:14:36;92543.63;;;16.72;63.06
6389;BME280;3227;42.654;23.360;2022-12-11T08:17:03;92543.75;;;16.70;63.49
6389;BME280;3227;42.654;23.360;2022-12-11T08:19:31;92525.44;;;16.58;64.15
6389;BME280;3227;42.654;23.360;2022-12-11T08:21:58;92520.34;;;16.56;64.82
6389;BME280;3227;42.654;23.360;2022-12-11T08:24:25;92533.63;;;16.66;64.39
6389;BME280;3227;42.654;23.360;2022-12-11T08:26:52;92539.28;;;16.72;65.13
6389;BME280;3227;42.654;23.360;2022-12-11T08:29:19;92536.38;;;16.79;65.62
6389;BME280;3227;42.654;23.360;2022-12-11T08:31:46;92539.53;;;16.84;65.96
6389;BME280;3227;42.654;23.360;2022-12-11T08:34:12;92535.28;;;16.83;64.67
6389;BME280;3227;42.654;23.360;2022-12-11T08:36:41;92514.38;;;16.71;63.76
6389;BME280;3227;42.654;23.360;2022-12-11T08:39:08;92528.28;;;16.53;65.56
6389;BME280;3227;42.654;23.360;2022-12-11T08:41:35;92525.50;;;16.41;64.93
6389;BME280;3227;42.654;23.360;2022-12-11T08:44:02;92518.59;;;16.41;66.95
6389;BME280;3227;42.654;23.360;2022-12-11T08:46:30;92477.44;;;16.22;65.02
6389;BME280;3227;42.654;23.360;2022-12-11T08:48:58;92520.94;;;16.46;66.50
6389;BME280;3227;42.654;23.360;2022-12-11T08:51:27;92512.16;;;16.48;66.95
6389;BME280;3227;42.654;23.360;2022-12-11T08:53:57;92455.50;;;16.14;67.88
6389;BME280;3227;42.654;23.360;2022-12-11T08:56:24;92506.34;;;16.45;66.98
6389;BME280;3227;42.654;23.360;2022-12-11T08:58:51;92500.69;;;16.38;66.82
6389;BME280;3227;42.654;23.360;2022-12-11T09:01:20;92512.16;;;16.32;68.21
6389;BME280;3227;42.654;23.360;2022-12-11T09:03:48;92520.41;;;16.39;68.24
6389;BME280;3227;42.654;23.360;2022-12-11T09:06:17;92518.59;;;16.41;69.36
6389;BME280;3227;42.654;23.360;2022-12-11T09:08:46;92513.91;;;16.32;69.36
6389;BME280;3227;42.654;23.360;2022-12-11T09:11:16;92504.25;;;16.35;66.74
6389;BME280;3227;42.654;23.360;2022-12-11T09:13:44;92499.59;;;16.42;66.02
6389;BME280;3227;42.654;23.360;2022-12-11T09:16:14;92495.19;;;16.44;65.82
6389;BME280;3227;42.654;23.360;2022-12-11T09:18:41;92477.66;;;16.49;64.46
6389;BME280;3227;42.654;23.360;2022-12-11T09:21:12;92494.91;;;16.49;66.25
6389;BME280;3227;42.654;23.360;2022-12-11T09:23:39;92481.91;;;16.50;66.40
6389;BME280;3227;42.654;23.360;2022-12-11T09:26:08;92489.09;;;16.45;64.87
6389;BME280;3227;42.654;23.360;2022-12-11T09:28:37;92467.31;;;16.33;64.02
6389;BME280;3227;42.654;23.360;2022-12-11T09:31:07;92442.06;;;16.23;65.26
6389;BME280;3227;42.654;23.360;2022-12-11T09:33:34;92481.34;;;16.45;65.37
6389;BME280;3227;42.654;23.360;2022-12-11T09:36:02;92489.16;;;16.59;66.28
6389;BME280;3227;42.654;23.360;2022-12-11T09:38:30;92483.31;;;16.56;65.62
6389;BME280;3227;42.654;23.360;2022-12-11T09:40:57;92480.06;;;16.52;65.88
6389;BME280;3227;42.654;23.360;2022-12-11T09:43:32;92482.59;;;16.54;65.79
6389;BME280;3227;42.654;23.360;2022-12-11T09:46:05;92487.41;;;16.44;65.22
6389;BME280;3227;42.654;23.360;2022-12-11T09:48:33;92485.00;;;16.41;65.25
6389;BME280;3227;42.654;23.360;2022-12-11T09:51:06;92486.66;;;16.42;65.19
6389;BME280;3227;42.654;23.360;2022-12-11T09:53:36;92496.09;;;16.43;66.45
6389;BME280;3227;42.654;23.360;2022-12-11T09:56:06;92499.59;;;16.42;68.07
6389;BME280;3227;42.654;23.360;2022-12-11T09:58:53;92483.59;;;16.35;67.88
6389;BME280;3227;42.654;23.360;2022-12-11T10:01:31;92472.16;;;16.24;66.60
6389;BME280;3227;42.654;23.360;2022-12-11T10:07:07;92497.69;;;16.30;67.83
6389;BME280;3227;42.654;23.360;2022-12-11T10:09:42;92486.41;;;16.31;68.08
6389;BME280;3227;42.654;23.360;2022-12-11T10:12:30;92488.84;;;16.34;66.85
6389;BME280;3227;42.654;23.360;2022-12-11T10:15:18;92490.50;;;16.35;67.75
6389;BME280;3227;42.654;23.360;2022-12-11T10:17:53;92487.91;;;16.35;68.13
6389;BME280;3227;42.654;23.360;2022-12-11T10:20:24;92483.59;;;16.35;68.68
6389;BME280;3227;42.654;23.360;2022-12-11T10:22:53;92445.75;;;16.03;69.42
6389;BME280;3227;42.654;23.360;2022-12-11T10:25:24;92474.09;;;16.20;68.77
6389;BME280;3227;42.654;23.360;2022-12-11T10:27:52;92487.09;;;16.19;70.61
6389;BME280;3227;42.654;23.360;2022-12-11T10:30:21;92476.66;;;16.20;71.63
6389;BME280;3227;42.654;23.360;2022-12-11T10:33:01;92470.25;;;16.12;72.87
6389;BME280;3227;42.654;23.360;2022-12-11T10:35:35;92464.06;;;16.14;74.80
6389;BME280;3227;42.654;23.360;2022-12-11T10:38:13;92473.25;;;16.04;73.85
6389;BME280;3227;42.654;23.360;2022-12-11T10:40:43;92468.00;;;16.06;73.80
6389;BME280;3227;42.654;23.360;2022-12-11T10:43:10;92470.59;;;16.06;74.43
6389;BME280;3227;42.654;23.360;2022-12-11T10:45:37;92474.09;;;16.20;74.73
6389;BME280;3227;42.654;23.360;2022-12-11T10:48:09;92457.56;;;16.23;74.48
6389;BME280;3227;42.654;23.360;2022-12-11T10:50:44;92451.56;;;16.54;75.31
6389;BME280;3227;42.654;23.360;2022-12-11T10:53:21;92449.69;;;16.56;71.07
6389;BME280;3227;42.654;23.360;2022-12-11T10:55:48;92452.63;;;16.65;71.55
6389;BME280;3227;42.654;23.360;2022-12-11T10:58:17;92452.97;;;16.75;71.93
6389;BME280;3227;42.654;23.360;2022-12-11T11:00:46;92430.53;;;16.76;71.55
6389;BME280;3227;42.654;23.360;2022-12-11T11:03:22;92450.75;;;17.13;66.41
6389;BME280;3227;42.654;23.360;2022-12-11T11:06:01;92447.91;;;17.18;65.34
6389;BME280;3227;42.654;23.360;2022-12-11T11:08:39;92429.88;;;17.16;65.94
6389;BME280;3227;42.654;23.360;2022-12-11T11:11:19;92451.16;;;17.21;64.49
6389;BME280;3227;42.654;23.360;2022-12-11T11:13:46;92442.06;;;17.14;67.02
6389;BME280;3227;42.654;23.360;2022-12-11T11:16:15;92443.28;;;17.08;65.02
6389;BME280;3227;42.654;23.360;2022-12-11T11:18:51;92447.78;;;17.05;64.92
6389;BME280;3227;42.654;23.360;2022-12-11T11:21:20;92439.28;;;17.03;67.45
6389;BME280;3227;42.654;23.360;2022-12-11T11:23:48;92442.72;;;17.03;66.87
6389;BME280;3227;42.654;23.360;2022-12-11T11:26:16;92413.81;;;16.81;66.34
6389;BME280;3227;42.654;23.360;2022-12-11T11:28:47;92435.47;;;16.94;65.91
6389;BME280;3227;42.654;23.360;2022-12-11T11:31:15;92418.75;;;16.86;67.37
6389;BME280;3227;42.654;23.360;2022-12-11T11:33:49;92443.25;;;16.94;68.04
6389;BME280;3227;42.654;23.360;2022-12-11T11:36:20;92433.97;;;16.90;69.32
6389;BME280;3227;42.654;23.360;2022-12-11T11:39:12;92430.00;;;16.85;71.07
6389;BME280;3227;42.654;23.360;2022-12-11T11:41:48;92425.72;;;16.69;70.30
6389;BME280;3227;42.654;23.360;2022-12-11T11:44:23;92435.56;;;16.63;71.57
6389;BME280;3227;42.654;23.360;2022-12-11T11:46:57;92431.88;;;16.51;71.67
6389;BME280;3227;42.654;23.360;2022-12-11T11:49:34;92432.88;;;16.49;74.56
6389;BME280;3227;42.654;23.360;2022-12-11T11:52:11;92428.53;;;16.49;79.06
6389;BME280;3227;42.654;23.360;2022-12-11T11:54:47;92402.56;;;16.36;75.10
6389;BME280;3227;42.654;23.360;2022-12-11T11:57:19;92420.13;;;16.46;76.40
6389;BME280;3227;42.654;23.360;2022-12-11T11:59:51;92419.31;;;16.45;73.85
6389;BME280;3227;42.654;23.360;2022-12-11T12:02:20;92382.91;;;16.18;77.65
6389;BME280;3227;42.654;23.360;2022-12-11T12:04:48;92416.88;;;16.42;77.30
6389;BME280;3227;42.654;23.360;2022-12-11T12:07:29;92417.72;;;16.43;78.69
6389;BME280;3227;42.654;23.360;2022-12-11T12:10:05;92382.75;;;16.21;76.67
6389;BME280;3227;42.654;23.360;2022-12-11T12:12:40;92416.13;;;16.40;73.97
6389;BME280;3227;42.654;23.360;2022-12-11T12:15:24;92388.22;;;16.15;77.50
6389;BME280;3227;42.654;23.360;2022-12-11T12:18:11;92402.38;;;16.24;76.68
6389;BME280;3227;42.654;23.360;2022-12-11T12:20:48;92422.41;;;16.20;77.65
6389;BME280;3227;42.654;23.360;2022-12-11T12:23:39;92397.44;;;15.89;70.70
6389;BME280;3227;42.654;23.360;2022-12-11T12:26:26;92385.94;;;15.79;75.80
6389;BME280;3227;42.654;23.360;2022-12-11T12:29:12;92379.59;;;15.69;75.44
6389;BME280;3227;42.654;23.360;2022-12-11T12:31:52;92400.75;;;15.76;78.54
6389;BME280;3227;42.654;23.360;2022-12-11T12:34:33;92406.81;;;15.42;81.11
6389;BME280;3227;42.654;23.360;2022-12-11T12:37:11;92409.81;;;14.31;83.09
6389;BME280;3227;42.654;23.360;2022-12-11T12:39:50;92437.69;;;13.29;88.07
6389;BME280;3227;42.654;23.360;2022-12-11T12:42:28;92419.59;;;12.71;90.43
6389;BME280;3227;42.654;23.360;2022-12-11T12:45:00;92449.63;;;12.49;92.14
6389;BME280;3227;42.654;23.360;2022-12-11T12:47:32;92458.47;;;12.42;92.71
6389;BME280;3227;42.654;23.360;2022-12-11T12:50:03;92461.22;;;12.37;93.90
6389;BME280;3227;42.654;23.360;2022-12-11T12:52:35;92424.22;;;11.99;93.00
6389;BME280;3227;42.654;23.360;2022-12-11T12:55:12;92471.84;;;12.06;92.58
6389;BME280;3227;42.654;23.360;2022-12-11T12:57:49;92473.44;;;12.10;92.54
6389;BME280;3227;42.654;23.360;2022-12-11T13:00:31;92459.78;;;11.87;91.25
6389;BME280;3227;42.654;23.360;2022-12-11T13:03:02;92493.22;;;12.07;90.07
6389;BME280;3227;42.654;23.360;2022-12-11T13:05:40;92515.84;;;12.19;90.28
6389;BME280;3227;42.654;23.360;2022-12-11T13:08:10;92516.38;;;12.05;90.38
6389;BME280;3227;42.654;23.360;2022-12-11T13:10:40;92512.94;;;12.06;92.07
6389;BME280;3227;42.654;23.360;2022-12-11T13:13:33;92497.25;;;11.67;90.23
6389;BME280;3227;42.654;23.360;2022-12-11T13:16:22;92519.03;;;11.32;91.66
6389;BME280;3227;42.654;23.360;2022-12-11T13:18:49;92544.34;;;11.17;93.00
6389;BME280;3227;42.654;23.360;2022-12-11T13:21:29;92539.94;;;11.20;93.73
6389;BME280;3227;42.654;23.360;2022-12-11T13:24:16;92521.56;;;11.09;94.58
6389;BME280;3227;42.654;23.360;2022-12-11T13:26:50;92513.94;;;10.81;92.70
6389;BME280;3227;42.654;23.360;2022-12-11T13:29:32;92548.09;;;10.82;93.50